Sint-Martens-Lennik, Belgium
Current Conditions -  °F | °C
As of 6:50 AM on Wednesday 22 Oct 2014 (Local Time) from EBBR Reporting Station
Broken Clouds Broken Clouds  
Wind Chill: 40°   Ceiling: 4400
Heat Index: 46°   Visibility: 6mi
Dew Point: 37°   Wind: 15mph
Humidity: 71%   Direction: 290°WNW
Pressure: 30.06"   Gusts: NA
Location:  50.81°N, 4.17°E
Report Text: EBBR 220450Z 29013KT 9999 FEW024 BKN044 08/03 Q1018 NOSIG
Loading
Personal Weather Stations






























Interactive Weather Map
Tropical Storm Tracking
New forecast layout! Learn more

10-Day Weather Forecast

Advertisements
Track Severe Weather on mobile